Latest Weather Observations for Karratha

IDW60801

Issued at 3:35 pm WST Saturday 20 September 2014 (issued every 30 minutes, with the page automatically refreshed every 10 minutes)

About weather observations | Map of weather stations | Latest weather observations for WA | Other Formats
Station Details ID: 004083 Name: KARRATHA AERO Lat: -20.71 Lon: 116.77 Height: 5.3 m
Data from the previous 72 hours. | See also: Recent months at Karratha
Date/Time
WST
Temp
°C
App
Temp
°C
Dew
Point
Rel
Hum
%
Delta-T
°C
Wind Press
QNH
hPa
Press
MSL
hPa
Rain
since 9 am
mm
Dir
 
Spd
km/h
Gust
km/h
Spd
kts
Gust
kts
20/03:30pm 33.5 29.8 10.2 24 13.4 W 20 24 11 13 1013.0 1013.0 0.0
20/03:00pm 34.5 30.1 10.4 23 14.0 W 24 30 13 16 1013.1 1013.1 0.0
20/02:30pm 34.1 30.0 10.0 23 13.9 W 22 28 12 15 1013.0 1013.0 0.0
20/02:00pm 34.4 30.5 9.6 22 14.2 NW 20 24 11 13 1013.2 1013.2 0.0
20/01:30pm 34.5 30.7 9.0 21 14.5 WNW 19 24 10 13 1013.1 1013.1 0.0
20/01:00pm 34.5 31.1 9.0 21 14.5 W 17 22 9 12 1013.5 1013.5 0.0
20/12:30pm 34.3 29.9 7.4 19 14.9 W 20 26 11 14 1013.7 1013.7 0.0
20/12:00pm 34.1 29.8 8.0 20 14.6 W 20 24 11 13 1014.2 1014.2 0.0
20/11:30am 33.5 29.0 5.9 18 14.9 W 19 22 10 12 1014.6 1014.6 0.0
20/11:00am 32.9 29.1 3.8 16 15.1 WSW 13 20 7 11 1015.1 1015.1 0.0
20/10:30am 32.4 29.3 7.3 21 13.7 NNW 13 19 7 10 1015.8 1015.8 0.0
20/10:00am 31.6 29.3 5.9 20 13.7 NNE 7 13 4 7 1015.9 1015.9 0.0
20/09:30am 31.3 28.6 5.7 20 13.6 E 9 13 5 7 1016.1 1016.1 0.0
20/09:00am 29.5 27.4 6.8 24 12.1 E 7 13 4 7 1016.3 1016.3 0.0
20/08:30am 27.8 26.1 7.6 28 10.8 ENE 6 9 3 5 1016.4 1016.4 0.0
20/08:00am 26.3 25.0 7.8 31 9.9 NE 4 7 2 4 1016.2 1016.2 0.0
20/07:30am 24.6 23.2 5.4 29 9.7 ENE 2 6 1 3 1015.8 1015.8 0.0
20/07:00am 21.8 20.0 5.3 34 8.2 ESE 4 7 2 4 1015.3 1015.3 0.0
20/06:30am 21.7 20.2 2.9 29 8.9 NW 0 0 0 0 1014.8 1014.8 0.0
20/06:00am 20.6 18.8 3.3 32 8.2 SW 2 7 1 4 1014.5 1014.5 0.0
20/05:30am 20.2 18.8 3.4 33 7.9 CALM 0 0 0 0 1014.1 1014.1 0.0
20/05:00am 21.3 18.7 3.0 30 8.7 SSW 6 9 3 5 1013.8 1013.8 0.0
20/04:30am 20.8 18.1 3.5 32 8.2 S 7 11 4 6 1013.5 1013.5 0.0
20/04:00am 21.1 19.9 4.6 34 8.0 CALM 0 0 0 0 1013.4 1013.4 0.0
20/03:30am 21.0 19.5 5.0 35 7.9 W 2 6 1 3 1013.5 1013.5 0.0
20/03:00am 23.0 20.5 4.5 30 9.1 SW 7 9 4 5 1013.5 1013.5 0.0
20/02:30am 23.6 21.3 5.0 30 9.3 W 6 7 3 4 1013.9 1013.9 0.0
20/02:00am 23.3 21.2 6.6 34 8.6 WSW 7 9 4 5 1014.0 1014.0 0.0
20/01:30am 22.4 20.6 8.1 40 7.5 WSW 7 11 4 6 1014.4 1014.4 0.0
20/01:00am 21.7 19.6 6.8 38 7.6 W 7 9 4 5 1014.7 1014.7 0.0
20/12:30am 21.6 19.7 10.4 49 6.1 SSW 11 13 6 7 1014.8 1014.8 0.0
20/12:00am 23.6 23.1 13.8 54 5.7 WSW 9 11 5 6 1015.0 1015.0 0.0
 
Date/Time
WST
Temp
°C
App
Temp
°C
Dew
Point
Rel
Hum
%
Delta-T
°C
Wind Press
QNH
hPa
Press
MSL
hPa
Rain
since 9 am
mm
Dir
 
Spd
km/h
Gust
km/h
Spd
kts
Gust
kts
19/11:30pm 25.7 24.6 14.2 49 6.8 WNW 13 15 7 8 1015.4 1015.4 0.0
19/11:00pm 25.8 25.0 15.2 52 6.4 W 13 15 7 8 1015.4 1015.4 0.0
19/10:30pm 25.1 25.8 18.8 68 4.0 WNW 13 15 7 8 1015.5 1015.5 0.0
19/10:00pm 25.5 25.8 18.7 66 4.3 WNW 15 17 8 9 1015.9 1015.9 0.0
19/09:30pm 25.6 25.9 18.8 66 4.3 WNW 15 17 8 9 1015.9 1015.9 0.0
19/09:00pm 25.8 26.4 18.5 64 4.6 WNW 13 15 7 8 1015.9 1015.9 0.0
19/08:30pm 26.0 26.6 18.7 64 4.7 WNW 13 15 7 8 1015.8 1015.8 0.0
19/08:00pm 26.4 26.5 18.3 61 5.1 NW 15 19 8 10 1015.4 1015.4 0.0
19/07:30pm 26.7 27.4 18.0 59 5.5 WNW 11 15 6 8 1015.2 1015.2 0.0
19/07:00pm 27.1 27.0 17.8 56 5.9 NW 15 20 8 11 1014.9 1014.9 0.0
19/06:30pm 27.7 26.9 17.2 52 6.6 NW 17 20 9 11 1014.5 1014.5 0.0
19/06:00pm 28.7 27.4 14.9 43 8.4 WNW 15 19 8 10 1014.1 1014.1 0.0
19/05:30pm 29.8 27.6 14.4 39 9.3 NW 19 24 10 13 1013.8 1013.8 0.0
19/05:00pm 31.0 27.4 9.8 27 12.0 WNW 19 22 10 12 1013.6 1013.6 0.0
19/04:30pm 31.9 29.5 12.7 31 11.4 WNW 17 20 9 11 1013.4 1013.4 0.0
19/04:00pm 32.5 29.5 9.3 24 13.1 NW 15 20 8 11 1013.1 1013.1 0.0
19/03:30pm 32.7 30.4 11.8 28 12.3 NNW 15 20 8 11 1013.3 1013.3 0.0
19/03:00pm 33.2 30.5 11.7 27 12.7 NNW 17 20 9 11 1013.4 1013.4 0.0
19/02:30pm 32.6 31.0 13.8 32 11.4 N 15 20 8 11 1013.4 1013.4 0.0
19/02:00pm 33.2 30.7 11.1 26 12.9 NNW 15 22 8 12 1013.7 1013.7 0.0
19/01:30pm 33.4 30.1 6.6 19 14.6 N 13 19 7 10 1013.9 1013.9 0.0
19/01:00pm 33.7 30.5 6.9 19 14.7 N 13 19 7 10 1014.3 1014.3 0.0
19/12:30pm 33.9 29.8 4.6 16 15.5 NNE 15 20 8 11 1014.5 1014.5 0.0
19/12:00pm 34.9 31.4 3.5 14 16.4 W 11 20 6 11 1014.8 1014.8 0.0
19/11:30am 33.8 30.0 1.6 13 16.2 W 11 15 6 8 1015.3 1015.3 0.0
19/11:00am 33.6 29.4 1.4 13 16.1 W 13 17 7 9 1015.6 1015.6 0.0
19/10:30am 33.3 28.6 1.2 13 16.0 W 15 20 8 11 1015.8 1015.8 0.0
19/10:00am 33.2 29.4 4.0 16 15.2 W 13 17 7 9 1016.2 1016.2 0.0
19/09:30am 30.3 27.4 8.1 25 12.2 W 13 20 7 11 1016.4 1016.4 0.0
19/09:00am 30.8 28.1 2.9 17 14.1 S 6 13 3 7 1016.5 1016.5 0.0
19/08:30am 28.9 25.6 4.4 21 12.5 SSE 11 13 6 7 1016.6 1016.6 0.0
19/08:00am 26.1 24.1 7.2 30 10.0 S 7 11 4 6 1016.4 1016.4 0.0
19/07:30am 23.2 23.3 12.8 52 6.0 WSW 4 9 2 5 1016.2 1016.2 0.0
19/07:00am 20.9 21.4 15.0 69 3.5 W 6 9 3 5 1015.9 1015.9 0.0
19/06:30am 19.1 19.2 15.4 79 2.2 WSW 9 13 5 7 1015.6 1015.6 0.0
19/06:00am 18.4 18.8 16.4 88 1.2 WSW 9 11 5 6 1015.2 1015.2 0.0
19/05:30am 18.3 18.1 16.8 91 0.9 WSW 13 17 7 9 1014.9 1014.9 0.0
19/05:00am 18.1 18.0 16.9 93 0.7 WSW 13 15 7 8 1014.6 1014.6 0.0
19/04:30am 18.3 19.0 17.0 92 0.8 WSW 9 13 5 7 1014.5 1014.5 0.0
19/04:00am 18.9 19.0 17.4 91 0.9 WSW 13 15 7 8 1014.3 1014.3 0.0
19/03:30am 20.0 20.2 17.6 86 1.5 WSW 13 15 7 8 1014.3 1014.3 0.0
19/03:00am 21.8 21.1 18.2 80 2.2 WSW 19 24 10 13 1014.4 1014.4 0.0
19/02:30am 22.3 20.7 18.3 78 2.5 WSW 24 30 13 16 1014.5 1014.5 0.0
19/02:00am 22.4 20.5 19.4 83 1.9 W 28 33 15 18 1014.7 1014.7 0.0
19/01:30am 22.5 20.9 20.0 86 1.6 WSW 28 35 15 19 1014.7 1014.7 0.0
19/01:00am 22.7 21.3 19.7 83 1.9 WSW 26 32 14 17 1014.9 1014.9 0.0
19/12:30am 23.2 21.2 19.1 78 2.6 WSW 28 35 15 19 1015.3 1015.3 0.0
19/12:00am 23.3 22.2 18.6 75 3.0 W 22 26 12 14 1015.3 1015.3 0.0
 
Date/Time
WST
Temp
°C
App
Temp
°C
Dew
Point
Rel
Hum
%
Delta-T
°C
Wind Press
QNH
hPa
Press
MSL
hPa
Rain
since 9 am
mm
Dir
 
Spd
km/h
Gust
km/h
Spd
kts
Gust
kts
18/11:30pm 23.3 22.6 18.6 75 3.0 WSW 20 26 11 14 1015.5 1015.5 0.0
18/11:00pm 23.7 22.2 17.7 69 3.7 WSW 22 28 12 15 1015.6 1015.6 0.0
18/10:30pm 23.9 22.3 17.4 67 4.0 WSW 22 28 12 15 1015.8 1015.8 0.0
18/10:00pm 24.7 22.6 17.2 63 4.6 WSW 24 30 13 16 1016.0 1016.0 0.0
18/09:30pm 24.9 23.8 18.6 68 4.0 WSW 22 30 12 16 1016.0 1016.0 0.0
18/09:00pm 25.2 24.6 18.9 68 4.0 WSW 20 26 11 14 1016.0 1016.0 0.0
18/08:30pm 25.5 24.4 18.7 66 4.3 W 22 28 12 15 1015.9 1015.9 0.0
18/08:00pm 26.1 24.6 18.5 63 4.8 W 24 28 13 15 1015.4 1015.4 0.0
18/07:30pm 26.4 25.0 18.8 63 4.9 W 24 28 13 15 1015.0 1015.0 0.0
18/07:00pm 26.7 25.1 18.3 60 5.3 W 24 30 13 16 1014.6 1014.6 0.0
18/06:30pm 27.3 25.5 17.8 56 6.0 W 24 32 13 17 1014.2 1014.2 0.0
18/06:00pm 28.4 25.8 16.0 47 7.7 W 24 30 13 16 1013.9 1013.9 0.0
18/05:30pm 29.7 27.7 15.4 42 8.8 W 20 26 11 14 1013.5 1013.5 0.0
18/05:00pm 30.2 28.1 16.2 42 8.7 W 22 28 12 15 1013.2 1013.2 0.0
18/04:30pm 30.8 28.2 16.0 40 9.2 WNW 24 30 13 16 1013.1 1013.1 0.0
18/04:00pm 31.2 29.2 16.4 41 9.3 WNW 22 30 12 16 1013.1 1013.1 0.0
18/03:30pm 31.7 29.0 15.6 37 10.0 WNW 24 30 13 16 1013.1 1013.1 0.0
18/03:00pm 30.7 28.0 16.7 43 8.8 W 26 35 14 19 1013.3 1013.3 0.0
18/02:30pm 30.1 27.5 17.9 48 7.8 W 28 32 15 17 1013.3 1013.3 0.0
18/02:00pm 31.3 28.9 15.3 38 9.9 W 22 30 12 16 1013.6 1013.6 0.0
18/01:30pm 31.1 29.7 17.0 42 8.9 WNW 20 24 11 13 1014.1 1014.1 0.0
18/01:00pm 30.7 29.7 16.7 43 8.8 WNW 17 24 9 13 1014.6 1014.6 0.0
18/12:30pm 30.9 28.5 14.5 37 10.0 NW 20 26 11 14 1015.1 1015.1 0.0
18/12:00pm 30.2 29.3 16.9 44 8.4 WNW 17 20 9 11 1015.4 1015.4 0.0
18/11:30am 29.9 30.5 18.7 51 7.2 NW 13 19 7 10 1015.9 1015.9 0.0
18/11:00am 29.2 27.7 14.2 40 9.0 WNW 15 19 8 10 1016.2 1016.2 0.0
18/10:30am 28.5 28.5 15.1 44 8.2 W 9 15 5 8 1016.4 1016.4 0.0
18/10:00am 27.4 28.0 16.7 52 6.6 W 9 15 5 8 1016.7 1016.7 0.0
18/09:30am 26.8 27.4 17.8 57 5.7 W 11 15 6 8 1016.6 1016.6 0.0
18/09:00am 25.5 26.8 18.4 65 4.5 NW 9 13 5 7 1016.8 1016.8 0.0
18/08:30am 23.6 24.4 19.1 76 2.9 NW 13 17 7 9 1016.8 1016.8 0.0
18/08:00am 22.9 24.8 18.9 78 2.5 SW 7 15 4 8 1016.2 1016.2 0.0
18/07:30am 21.2 22.7 18.9 87 1.4 W 9 15 5 8 1015.8 1015.8 0.0
18/07:00am 19.2 20.1 18.5 96 0.4 WSW 11 15 6 8 1015.5 1015.5 0.0
18/06:30am 18.6 18.2 18.1 97 0.3 SW 17 20 9 11 1015.1 1015.1 0.0
18/06:00am 18.8 18.8 18.1 96 0.4 SW 15 17 8 9 1015.0 1015.0 0.0
18/05:30am 19.2 20.9 18.5 96 0.4 WNW 7 13 4 7 1014.9 1014.9 0.0
18/05:00am 19.1 19.3 18.6 97 0.3 WSW 15 17 8 9 1014.4 1014.4 0.0
18/04:30am 18.8 20.3 18.1 96 0.4 WSW 7 9 4 5 1014.3 1014.3 0.0
18/04:00am 19.3 19.8 18.3 94 0.6 SW 13 19 7 10 1013.9 1013.9 0.0
18/03:30am 20.7 19.6 19.5 93 0.8 WSW 24 28 13 15 1014.0 1014.0 0.0
18/03:00am 20.9 20.6 19.6 92 0.8 WSW 20 22 11 12 1014.2 1014.2 0.0
18/02:30am 21.3 21.7 19.8 91 1.0 W 17 22 9 12 1014.5 1014.5 0.0
18/02:00am 21.6 21.6 19.7 89 1.2 W 19 22 10 12 1014.4 1014.4 0.0
18/01:30am 21.3 21.0 19.6 90 1.1 WSW 20 24 11 13 1014.3 1014.3 0.0
18/01:00am 21.4 21.4 19.7 90 1.1 WSW 19 22 10 12 1014.6 1014.6 0.0
18/12:30am 21.8 21.3 19.9 89 1.2 WSW 22 28 12 15 1014.9 1014.9 0.0
18/12:00am 21.8 20.5 19.9 89 1.2 WSW 26 35 14 19 1015.0 1015.0 0.0
 
Date/Time
WST
Temp
°C
App
Temp
°C
Dew
Point
Rel
Hum
%
Delta-T
°C
Wind Press
QNH
hPa
Press
MSL
hPa
Rain
since 9 am
mm
Dir
 
Spd
km/h
Gust
km/h
Spd
kts
Gust
kts
17/11:30pm 22.1 20.5 20.0 88 1.3 W 28 35 15 19 1015.2 1015.2 0.0
17/11:00pm 22.6 21.0 20.1 86 1.6 W 28 35 15 19 1015.5 1015.5 0.0
17/10:30pm 22.7 21.9 20.0 85 1.7 W 24 32 13 17 1015.5 1015.5 0.0
17/10:00pm 23.0 21.7 19.8 82 2.1 W 26 30 14 16 1015.5 1015.5 0.0
17/09:30pm 23.3 21.6 19.7 80 2.3 W 28 35 15 19 1015.6 1015.6 0.0
17/09:00pm 23.8 22.8 20.5 82 2.1 W 26 32 14 17 1015.1 1015.1 0.0
17/08:30pm 24.4 24.0 20.9 81 2.3 W 24 28 13 15 1014.8 1014.8 0.0
17/08:00pm 24.5 24.8 20.8 80 2.4 W 20 28 11 15 1014.4 1014.4 0.0
17/07:30pm 24.8 25.2 20.9 79 2.6 W 20 26 11 14 1013.9 1013.9 0.0
17/07:00pm 25.0 25.3 20.7 77 2.8 W 20 28 11 15 1013.4 1013.4 0.0
17/06:30pm 25.7 25.2 20.7 74 3.3 W 24 30 13 16 1013.0 1013.0 0.0
17/06:00pm 25.8 24.9 20.6 73 3.4 W 26 30 14 16 1012.8 1012.8 0.0
17/05:30pm 27.2 25.6 19.3 62 5.1 W 26 32 14 17 1012.5 1012.5 0.0
17/05:00pm 28.0 26.4 19.2 58 5.7 W 26 32 14 17 1012.2 1012.2 0.0
17/04:30pm 28.8 26.3 18.0 52 6.9 W 28 33 15 18 1012.1 1012.1 0.0
17/04:00pm 29.6 26.8 18.1 50 7.4 W 30 35 16 19 1011.9 1011.9 0.0

Other Formats:

Comma delimited format used in spreadsheet applications
http://www.bom.gov.au/fwo/IDW60801/IDW60801.95307.axf

JavaScript Object Notation format (JSON) in row-major order
http://www.bom.gov.au/fwo/IDW60801/IDW60801.95307.json